Time,TemperatureF,DewpointF,PressureIn,WindDirection,WindDirectionDegrees,WindSpeedMPH,WindSpeedGustMPH,Humidity,HourlyPrecipIn,Conditions,Clouds,dailyrainin,SoftwareType,DateUTC
2013-02-10 00:13:00,40.5,40.0,29.94,NNW,337,1.1,-999.0,98,-99.99,,,0.00,Acu-Link.com,2013-02-10 06:13:00,
2013-02-10 00:28:00,40.5,40.0,29.93,NNW,337,0.0,-999.0,98,-99.99,,,0.00,Acu-Link.com,2013-02-10 06:28:00,
2013-02-10 00:44:00,40.6,40.1,29.93,NNW,337,0.0,-999.0,98,-99.99,,,0.00,Acu-Link.com,2013-02-10 06:44:00,
2013-02-10 00:59:00,40.6,40.1,29.93,NNW,337,1.1,-999.0,98,-99.99,,,0.00,Acu-Link.com,2013-02-10 06:59:00,
2013-02-10 01:14:00,40.6,40.1,29.94,NNW,337,0.0,-999.0,98,-99.99,,,0.00,Acu-Link.com,2013-02-10 07:14:00,
2013-02-10 01:29:00,40.6,40.1,29.95,NNW,337,0.0,-999.0,98,-99.99,,,0.00,Acu-Link.com,2013-02-10 07:29:00,
2013-02-10 01:44:00,40.6,40.1,29.94,NNW,337,0.0,-999.0,98,-99.99,,,0.00,Acu-Link.com,2013-02-10 07:44:00,
2013-02-10 01:59:00,40.6,40.1,29.93,NNW,337,0.0,-999.0,98,-99.99,,,0.00,Acu-Link.com,2013-02-10 07:59:00,
2013-02-10 02:14:00,40.5,40.0,29.93,NNW,337,1.1,-999.0,98,-99.99,,,0.00,Acu-Link.com,2013-02-10 08:14:00,
2013-02-10 02:29:00,40.5,40.0,29.92,NNW,337,0.0,-999.0,98,-99.99,,,0.00,Acu-Link.com,2013-02-10 08:29:00,
2013-02-10 02:44:00,40.1,39.6,29.93,NNW,337,0.0,-999.0,98,-99.99,,,0.00,Acu-Link.com,2013-02-10 08:44:00,
2013-02-10 03:00:00,39.7,39.2,29.92,NNW,337,2.2,-999.0,98,-99.99,,,0.00,Acu-Link.com,2013-02-10 09:00:00,
2013-02-10 03:19:00,39.9,39.4,29.93,NNW,337,1.1,-999.0,98,-99.99,,,0.00,Acu-Link.com,2013-02-10 09:19:00,
2013-02-10 03:34:00,40.5,40.0,29.93,NNW,337,2.2,-999.0,98,-99.99,,,0.00,Acu-Link.com,2013-02-10 09:34:00,
2013-02-10 03:50:00,41.5,41.0,29.94,North,0,1.7,-999.0,98,-99.99,,,0.00,Acu-Link.com,2013-02-10 09:50:00,
2013-02-10 04:05:00,41.7,41.2,29.94,North,0,1.1,-999.0,98,-99.99,,,0.00,Acu-Link.com,2013-02-10 10:05:00,
2013-02-10 04:20:00,44.2,43.7,29.93,NNW,337,2.2,-999.0,98,-99.99,,,0.00,Acu-Link.com,2013-02-10 10:20:00,
2013-02-10 04:35:00,46.8,46.3,29.93,North,0,0.0,-999.0,98,-99.99,,,0.00,Acu-Link.com,2013-02-10 10:35:00,
2013-02-10 04:50:00,47.7,45.8,29.92,SSE,157,3.2,-999.0,93,-99.99,,,0.00,Acu-Link.com,2013-02-10 10:50:00,
2013-02-10 05:05:00,50.4,43.1,29.92,SSE,157,3.2,-999.0,76,-99.99,,,0.00,Acu-Link.com,2013-02-10 11:05:00,
2013-02-10 05:20:00,50.0,42.4,29.92,SSE,157,2.7,-999.0,75,-99.99,,,0.00,Acu-Link.com,2013-02-10 11:20:00,
2013-02-10 05:36:00,51.1,41.7,29.90,ESE,112,5.3,-999.0,70,-99.99,,,0.00,Acu-Link.com,2013-02-10 11:36:00,
2013-02-10 05:51:00,51.1,42.0,29.91,SE,135,6.8,-999.0,71,-99.99,,,0.00,Acu-Link.com,2013-02-10 11:51:00,
2013-02-10 06:06:00,51.6,42.5,29.90,South,180,5.8,-999.0,71,-99.99,,,0.00,Acu-Link.com,2013-02-10 12:06:00,
2013-02-10 06:21:00,51.3,41.9,29.89,SSE,157,6.8,-999.0,70,-99.99,,,0.00,Acu-Link.com,2013-02-10 12:21:00,
2013-02-10 06:36:00,51.1,42.8,29.90,SSE,157,5.3,-999.0,73,-99.99,,,0.00,Acu-Link.com,2013-02-10 12:36:00,
2013-02-10 06:51:00,50.7,43.1,29.91,East,90,1.7,-999.0,75,-99.99,,,0.00,Acu-Link.com,2013-02-10 12:51:00,
2013-02-10 07:06:00,51.3,42.9,29.93,South,180,6.3,-999.0,73,-99.99,,,0.00,Acu-Link.com,2013-02-10 13:06:00,
2013-02-10 07:21:00,50.9,43.6,29.93,ESE,112,4.2,-999.0,76,-99.99,,,0.00,Acu-Link.com,2013-02-10 13:21:00,
2013-02-10 07:36:00,52.3,44.3,29.93,South,180,6.8,-999.0,74,-99.99,,,0.00,Acu-Link.com,2013-02-10 13:36:00,
2013-02-10 07:52:00,52.3,44.3,29.93,ESE,112,3.7,-999.0,74,-99.99,,,0.00,Acu-Link.com,2013-02-10 13:52:00,
2013-02-10 08:07:00,52.7,44.6,29.93,NE,45,1.7,-999.0,74,-99.99,,,0.00,Acu-Link.com,2013-02-10 14:07:00,
2013-02-10 08:22:00,53.4,45.0,29.91,SE,135,3.7,-999.0,73,-99.99,,,0.00,Acu-Link.com,2013-02-10 14:22:00,
2013-02-10 08:37:00,54.5,46.0,29.92,East,90,2.2,-999.0,73,-99.99,,,0.00,Acu-Link.com,2013-02-10 14:37:00,
2013-02-10 08:52:00,55.0,45.8,29.92,West,270,1.7,-999.0,71,-99.99,,,0.00,Acu-Link.com,2013-02-10 14:52:00,
2013-02-10 09:07:00,56.3,46.6,29.91,SSE,157,8.3,-999.0,70,-99.99,,,0.00,Acu-Link.com,2013-02-10 15:07:00,
2013-02-10 09:22:00,56.3,48.1,29.91,WNW,292,5.3,-999.0,74,-99.99,,,0.00,Acu-Link.com,2013-02-10 15:22:00,
2013-02-10 09:37:00,56.3,48.5,29.92,ESE,112,2.7,-999.0,75,-99.99,,,0.00,Acu-Link.com,2013-02-10 15:37:00,
2013-02-10 09:52:00,57.4,50.2,29.90,ESE,112,5.3,-999.0,77,-99.99,,,0.00,Acu-Link.com,2013-02-10 15:52:00,
2013-02-10 10:08:00,57.2,50.4,29.89,South,180,7.3,-999.0,78,-99.99,,,0.00,Acu-Link.com,2013-02-10 16:08:00,
2013-02-10 10:23:00,57.6,52.1,29.89,SSW,202,2.2,-999.0,82,-99.99,,,0.00,Acu-Link.com,2013-02-10 16:23:00,
2013-02-10 10:38:00,58.6,53.8,29.88,North,0,3.2,-999.0,84,-99.99,,,0.00,Acu-Link.com,2013-02-10 16:38:00,
2013-02-10 10:53:00,58.5,55.9,29.87,South,180,8.9,-999.0,91,-99.99,,,0.00,Acu-Link.com,2013-02-10 16:53:00,
2013-02-10 11:08:00,58.6,56.9,29.86,ESE,112,14.0,-999.0,94,-99.99,,,0.00,Acu-Link.com,2013-02-10 17:08:00,
2013-02-10 11:23:00,58.1,57.5,29.87,East,90,5.3,-999.0,98,-99.99,,,0.00,Acu-Link.com,2013-02-10 17:23:00,
2013-02-10 11:38:00,58.1,57.5,29.85,South,180,4.2,-999.0,98,-99.99,,,0.00,Acu-Link.com,2013-02-10 17:38:00,
2013-02-10 11:53:00,58.1,57.5,29.84,ESE,112,2.7,-999.0,98,-99.99,,,0.00,Acu-Link.com,2013-02-10 17:53:00,
2013-02-10 12:08:00,55.8,55.2,29.83,SSE,157,3.7,-999.0,98,-99.99,,,0.02,Acu-Link.com,2013-02-10 18:08:00,
2013-02-10 12:24:00,55.2,54.6,29.81,ESE,112,1.7,-999.0,98,-99.99,,,0.05,Acu-Link.com,2013-02-10 18:24:00,
2013-02-10 12:39:00,55.2,54.6,29.81,North,0,0.0,-999.0,98,-99.99,,,0.05,Acu-Link.com,2013-02-10 18:39:00,
2013-02-10 12:54:00,54.3,53.7,29.79,NNE,22,2.2,-999.0,98,-99.99,,,0.05,Acu-Link.com,2013-02-10 18:54:00,
2013-02-10 13:09:00,53.8,53.2,29.79,NNW,337,1.1,-999.0,98,-99.99,,,0.07,Acu-Link.com,2013-02-10 19:09:00,
2013-02-10 13:24:00,53.4,52.8,29.77,NE,45,3.7,-999.0,98,-99.99,,,0.14,Acu-Link.com,2013-02-10 19:24:00,
2013-02-10 13:39:00,53.2,52.6,29.75,North,0,1.1,-999.0,98,-99.99,,,0.16,Acu-Link.com,2013-02-10 19:39:00,
2013-02-10 13:54:00,53.1,52.5,29.74,North,0,1.7,-999.0,98,-99.99,,,0.18,Acu-Link.com,2013-02-10 19:54:00,
2013-02-10 14:09:00,53.1,52.5,29.74,ENE,67,1.7,-999.0,98,-99.99,,,0.19,Acu-Link.com,2013-02-10 20:09:00,
2013-02-10 14:24:00,52.9,52.4,29.74,North,0,0.0,-999.0,98,-99.99,,,0.24,Acu-Link.com,2013-02-10 20:24:00,
2013-02-10 14:40:00,52.9,52.4,29.73,NNE,22,0.0,-999.0,98,-99.99,,,0.32,Acu-Link.com,2013-02-10 20:40:00,
2013-02-10 14:55:00,52.7,52.2,29.74,ESE,112,3.7,-999.0,98,-99.99,,,0.35,Acu-Link.com,2013-02-10 20:55:00,
2013-02-10 15:10:00,52.7,52.2,29.76,North,0,1.7,-999.0,98,-99.99,,,0.42,Acu-Link.com,2013-02-10 21:10:00,
2013-02-10 15:25:00,52.3,51.8,29.75,ESE,112,3.7,-999.0,98,-99.99,,,0.57,Acu-Link.com,2013-02-10 21:25:00,
2013-02-10 15:40:00,52.3,51.8,29.75,ENE,67,1.7,-999.0,98,-99.99,,,0.59,Acu-Link.com,2013-02-10 21:40:00,
2013-02-10 15:55:00,52.3,51.8,29.81,West,270,6.8,-999.0,98,-99.99,,,0.62,Acu-Link.com,2013-02-10 21:55:00,
2013-02-10 16:10:00,52.2,51.7,29.85,NE,45,2.7,-999.0,98,-99.99,,,0.76,Acu-Link.com,2013-02-10 22:10:00,
2013-02-10 16:25:00,52.0,51.5,29.81,East,90,4.2,-999.0,98,-99.99,,,0.86,Acu-Link.com,2013-02-10 22:25:00,
2013-02-10 16:40:00,52.2,51.7,29.82,ESE,112,6.3,-999.0,98,-99.99,,,0.96,Acu-Link.com,2013-02-10 22:40:00,
2013-02-10 16:56:00,52.2,51.7,29.78,NNE,22,2.2,-999.0,98,-99.99,,,1.00,Acu-Link.com,2013-02-10 22:56:00,
2013-02-10 17:11:00,52.7,52.2,29.80,North,0,3.7,-999.0,98,-99.99,,,1.02,Acu-Link.com,2013-02-10 23:11:00,
2013-02-10 17:26:00,52.9,52.4,29.79,North,0,2.2,-999.0,98,-99.99,,,1.07,Acu-Link.com,2013-02-10 23:26:00,
2013-02-10 17:41:00,52.9,52.4,29.79,North,0,1.1,-999.0,98,-99.99,,,1.12,Acu-Link.com,2013-02-10 23:41:00,
2013-02-10 17:56:00,52.9,52.4,29.80,North,0,0.0,-999.0,98,-99.99,,,1.14,Acu-Link.com,2013-02-10 23:56:00,
2013-02-10 18:11:00,52.7,52.2,29.79,ESE,112,2.7,-999.0,98,-99.99,,,1.16,Acu-Link.com,2013-02-11 00:11:00,
2013-02-10 18:26:00,52.5,52.0,29.79,NNE,22,1.7,-999.0,98,-99.99,,,1.17,Acu-Link.com,2013-02-11 00:26:00,
2013-02-10 18:41:00,52.3,51.8,29.79,East,90,2.7,-999.0,98,-99.99,,,1.18,Acu-Link.com,2013-02-11 00:41:00,
2013-02-10 18:57:00,52.7,52.2,29.77,North,0,2.7,-999.0,98,-99.99,,,1.20,Acu-Link.com,2013-02-11 00:57:00,
2013-02-10 19:12:00,53.4,52.8,29.75,East,90,2.7,-999.0,98,-99.99,,,1.21,Acu-Link.com,2013-02-11 01:12:00,
2013-02-10 19:27:00,54.1,53.5,29.76,East,90,2.7,-999.0,98,-99.99,,,1.22,Acu-Link.com,2013-02-11 01:27:00,
2013-02-10 19:42:00,54.7,54.1,29.73,NE,45,2.2,-999.0,98,-99.99,,,1.23,Acu-Link.com,2013-02-11 01:42:00,
2013-02-10 19:57:00,55.2,54.6,29.74,SSE,157,0.0,-999.0,98,-99.99,,,1.25,Acu-Link.com,2013-02-11 01:57:00,
2013-02-10 20:12:00,55.2,54.6,29.74,ESE,112,4.2,-999.0,98,-99.99,,,1.25,Acu-Link.com,2013-02-11 02:12:00,
2013-02-10 20:27:00,55.2,54.6,29.73,South,180,2.7,-999.0,98,-99.99,,,1.25,Acu-Link.com,2013-02-11 02:27:00,
2013-02-10 20:42:00,55.4,54.8,29.73,North,0,1.7,-999.0,98,-99.99,,,1.25,Acu-Link.com,2013-02-11 02:42:00,
2013-02-10 20:58:00,55.4,54.8,29.72,ENE,67,2.7,-999.0,98,-99.99,,,1.25,Acu-Link.com,2013-02-11 02:58:00,
2013-02-10 21:13:00,55.2,54.6,29.72,North,0,2.7,-999.0,98,-99.99,,,1.25,Acu-Link.com,2013-02-11 03:13:00,
2013-02-10 21:28:00,55.0,54.4,29.73,North,0,1.7,-999.0,98,-99.99,,,1.25,Acu-Link.com,2013-02-11 03:28:00,
2013-02-10 21:43:00,55.0,54.4,29.75,North,0,0.0,-999.0,98,-99.99,,,1.25,Acu-Link.com,2013-02-11 03:43:00,
2013-02-10 21:58:00,55.0,54.4,29.73,SSE,157,2.7,-999.0,98,-99.99,,,1.25,Acu-Link.com,2013-02-11 03:58:00,
2013-02-10 22:13:00,55.0,54.4,29.75,North,0,0.0,-999.0,98,-99.99,,,1.26,Acu-Link.com,2013-02-11 04:13:00,
2013-02-10 22:28:00,55.2,54.6,29.75,NNW,337,1.1,-999.0,98,-99.99,,,1.26,Acu-Link.com,2013-02-11 04:28:00,
2013-02-10 22:43:00,54.9,54.3,29.75,NNW,337,2.2,-999.0,98,-99.99,,,1.26,Acu-Link.com,2013-02-11 04:43:00,
2013-02-10 22:58:00,55.0,54.4,29.76,NNE,22,3.2,-999.0,98,-99.99,,,1.27,Acu-Link.com,2013-02-11 04:58:00,
2013-02-10 23:14:00,54.3,53.7,29.74,SSE,157,0.0,-999.0,98,-99.99,,,1.27,Acu-Link.com,2013-02-11 05:14:00,
2013-02-10 23:29:00,54.3,53.7,29.74,SSW,202,0.0,-999.0,98,-99.99,,,1.27,Acu-Link.com,2013-02-11 05:29:00,
2013-02-10 23:44:00,54.3,53.7,29.73,ESE,112,5.3,-999.0,98,-99.99,,,1.27,Acu-Link.com,2013-02-11 05:44:00,
2013-02-10 23:59:00,54.5,53.9,29.72,SW,225,1.1,-999.0,98,-99.99,,,1.27,Acu-Link.com,2013-02-11 05:59:00,